Time;durP1;ratioP1;P1;durP2;ratioP2;P2;SDS_P1;SDS_P2;PMS_P1;PMS_P2;Temp;Humidity;BMP_temperature;BMP_pressure;BME280_temperature;BME280_humidity;BME280_pressure;Samples;Min_cycle;Max_cycle;Signal;HPM_P1;HPM_P2
2022/03/28 00:01:55;;;;;;;14.1;10;;;;;;;6.83;64.87402;946.6188;;;;
2022/03/28 00:04:20;;;;;;;14.1;10.1;;;;;;;6.93;64.37891;946.5075;;;;
2022/03/28 00:06:45;;;;;;;14;9.3;;;;;;;6.85;64.59375;946.6021;;;;
2022/03/28 00:09:10;;;;;;;15.2;9.4;;;;;;;6.97;64.20313;946.6381;;;;
2022/03/28 00:11:35;;;;;;;12.7;9;;;;;;;6.96;64.2832;946.5959;;;;
2022/03/28 00:14:01;;;;;;;11.3;8.7;;;;;;;7.05;63.94336;946.5731;;;;
2022/03/28 00:16:37;;;;;;;11.1;9.1;;;;;;;7.11;63.64648;946.5427;;;;
2022/03/28 00:19:05;;;;;;;12.8;9.2;;;;;;;7.08;63.6875;946.5457;;;;
2022/03/28 00:21:29;;;;;;;16;9.3;;;;;;;7.08;63.6084;946.491;;;;
2022/03/28 00:23:54;;;;;;;12.6;9.3;;;;;;;7.02;63.62305;946.4817;;;;
2022/03/28 00:26:19;;;;;;;12.9;8.9;;;;;;;6.91;64.02539;946.4348;;;;
2022/03/28 00:28:45;;;;;;;11.6;8.8;;;;;;;6.86;64.2002;946.437;;;;
2022/03/28 00:31:10;;;;;;;13.7;9.5;;;;;;;6.76;64.45508;946.4581;;;;
2022/03/28 00:33:35;;;;;;;14.8;8.9;;;;;;;6.63;64.95703;946.4205;;;;
2022/03/28 00:36:00;;;;;;;15.3;8.7;;;;;;;6.53;65.34863;946.4684;;;;
2022/03/28 00:38:25;;;;;;;12.3;8.9;;;;;;;6.41;65.94043;946.4473;;;;
2022/03/28 00:40:50;;;;;;;11.3;8.7;;;;;;;6.41;66.04199;946.4038;;;;
2022/03/28 00:44:03;;;;;;;13;9.1;;;;;;;6.4;66.2002;946.4103;;;;
2022/03/28 00:46:28;;;;;;;12.5;9.2;;;;;;;6.34;66.16797;946.3369;;;;
2022/03/28 00:48:53;;;;;;;10.7;8.6;;;;;;;6.25;66.68555;946.3311;;;;
2022/03/28 00:51:18;;;;;;;13.7;8.9;;;;;;;6.15;67.14453;946.3317;;;;
2022/03/28 00:53:56;;;;;;;16.6;10;;;;;;;6.13;67.33301;946.3053;;;;
2022/03/28 00:56:22;;;;;;;13.4;9.2;;;;;;;6.14;67.28906;946.3278;;;;
2022/03/28 00:58:47;;;;;;;13.5;9.1;;;;;;;6.15;67.4502;946.307;;;;
2022/03/28 01:01:13;;;;;;;13.9;9.6;;;;;;;6.15;67.75391;946.2619;;;;
2022/03/28 01:03:38;;;;;;;11.9;9;;;;;;;6.26;67.375;946.2847;;;;
2022/03/28 01:06:03;;;;;;;11.3;9;;;;;;;6.29;67.04199;946.2606;;;;
2022/03/28 01:08:28;;;;;;;12.7;9.5;;;;;;;6.33;67.06934;946.2659;;;;
2022/03/28 01:10:53;;;;;;;11.9;9.1;;;;;;;6.4;66.7998;946.1858;;;;
2022/03/28 01:13:18;;;;;;;15.2;9.9;;;;;;;6.33;66.65137;946.2612;;;;
2022/03/28 01:16:06;;;;;;;13.2;9.5;;;;;;;6.29;66.6123;946.1806;;;;
2022/03/28 01:18:31;;;;;;;13.1;9.6;;;;;;;6.16;67.08789;946.1752;;;;
2022/03/28 01:20:58;;;;;;;12.6;10;;;;;;;6.19;66.7207;946.0524;;;;
2022/03/28 01:23:23;;;;;;;14.1;9.6;;;;;;;6.09;66.98828;946.1197;;;;
2022/03/28 01:25:48;;;;;;;14.2;9.6;;;;;;;6.04;67.29688;946.1321;;;;
2022/03/28 01:28:13;;;;;;;12.5;9.5;;;;;;;5.98;67.5;946.1119;;;;
2022/03/28 01:30:38;;;;;;;13.5;9.1;;;;;;;5.92;67.57129;946.1042;;;;
2022/03/28 01:33:03;;;;;;;11.6;9.1;;;;;;;5.82;68.01855;946.0648;;;;
2022/03/28 01:35:28;;;;;;;12.4;9.5;;;;;;;5.8;68.33008;946.0694;;;;
2022/03/28 01:37:53;;;;;;;11.4;9.2;;;;;;;5.82;68.32324;946.0344;;;;
2022/03/28 01:40:19;;;;;;;21.3;11.1;;;;;;;5.84;68.20215;945.9314;;;;
2022/03/28 01:42:45;;;;;;;12.5;9;;;;;;;5.84;68.20313;945.9767;;;;
2022/03/28 01:45:09;;;;;;;11.8;8.5;;;;;;;5.78;68.37402;945.9439;;;;
2022/03/28 01:47:37;;;;;;;13.8;9.1;;;;;;;5.61;69.07031;945.9357;;;;
2022/03/28 01:50:00;;;;;;;14.7;9.5;;;;;;;5.5;69.54688;945.9615;;;;
2022/03/28 01:52:25;;;;;;;14.5;10.1;;;;;;;5.5;69.68359;945.9381;;;;
2022/03/28 01:54:51;;;;;;;11.8;8.8;;;;;;;5.53;69.69727;945.8631;;;;
2022/03/28 01:57:16;;;;;;;11.9;9.2;;;;;;;5.49;69.80469;945.8878;;;;
2022/03/28 01:59:43;;;;;;;12.8;9.4;;;;;;;5.47;69.91406;945.8286;;;;
2022/03/28 02:02:08;;;;;;;12.4;9.2;;;;;;;5.57;69.5918;945.8395;;;;
2022/03/28 02:04:34;;;;;;;13.6;10.2;;;;;;;5.61;69.36133;945.8887;;;;
2022/03/28 02:06:59;;;;;;;14.7;9.9;;;;;;;5.69;68.90137;945.8604;;;;
2022/03/28 02:09:39;;;;;;;14.3;9.5;;;;;;;5.68;68.79785;945.8167;;;;
2022/03/28 02:12:06;;;;;;;13.6;9.3;;;;;;;5.53;68.96582;945.8278;;;;
2022/03/28 02:14:32;;;;;;;12.4;9.3;;;;;;;5.45;69.24609;945.7463;;;;
2022/03/28 02:16:58;;;;;;;13.2;9.4;;;;;;;5.49;69.24219;945.7339;;;;
2022/03/28 02:19:23;;;;;;;11;8.5;;;;;;;5.5;69.26465;945.7664;;;;
2022/03/28 02:21:49;;;;;;;12.6;8.7;;;;;;;5.36;69.88574;945.7605;;;;
2022/03/28 02:24:18;;;;;;;11.8;9.3;;;;;;;5.21;70.2998;945.7861;;;;
2022/03/28 02:26:44;;;;;;;12.1;8.9;;;;;;;5.23;70.28223;945.6842;;;;
2022/03/28 02:29:09;;;;;;;11.3;8.8;;;;;;;5.23;70.18066;945.7291;;;;
2022/03/28 02:31:34;;;;;;;16.5;9.9;;;;;;;5.18;70.45313;945.65;;;;
2022/03/28 02:34:00;;;;;;;11.7;9;;;;;;;5.1;70.79102;945.7132;;;;
2022/03/28 02:36:26;;;;;;;21.5;13.1;;;;;;;5.07;71.02051;945.6597;;;;
2022/03/28 02:38:51;;;;;;;17.5;11.6;;;;;;;5.14;70.44727;945.6533;;;;
2022/03/28 02:41:17;;;;;;;12.1;9.7;;;;;;;5.16;70.38281;945.6351;;;;
2022/03/28 02:43:43;;;;;;;12.4;9.4;;;;;;;5.17;70.2041;945.5842;;;;
2022/03/28 02:46:08;;;;;;;12.4;9.1;;;;;;;5.09;70.47266;945.6244;;;;
2022/03/28 02:48:33;;;;;;;11.1;8.7;;;;;;;4.99;70.82617;945.6142;;;;
2022/03/28 02:51:00;;;;;;;10.9;8.2;;;;;;;4.97;70.87988;945.6071;;;;
2022/03/28 02:53:25;;;;;;;11.5;8.8;;;;;;;4.98;70.6123;945.5002;;;;
2022/03/28 02:55:51;;;;;;;11.9;8.7;;;;;;;5.05;70.32031;945.5381;;;;
2022/03/28 02:58:16;;;;;;;13.7;8.7;;;;;;;5.08;70.07617;945.546;;;;
2022/03/28 03:00:41;;;;;;;10.9;8.4;;;;;;;5.16;69.63867;945.5728;;;;
2022/03/28 03:03:07;;;;;;;10.7;8.2;;;;;;;5.01;69.97461;945.5664;;;;
2022/03/28 03:05:32;;;;;;;11.9;8.2;;;;;;;4.93;70.34375;945.5895;;;;
2022/03/28 03:07:59;;;;;;;16.9;9.6;;;;;;;4.83;70.8916;945.5665;;;;
2022/03/28 03:10:24;;;;;;;26.4;11.5;;;;;;;4.89;70.89063;945.5564;;;;
2022/03/28 03:12:49;;;;;;;15;9.7;;;;;;;4.95;70.45996;945.5762;;;;
2022/03/28 03:15:14;;;;;;;22.7;11.4;;;;;;;4.95;70.61914;945.5078;;;;
2022/03/28 03:17:39;;;;;;;18.4;11.1;;;;;;;5.03;70.24902;945.5659;;;;
2022/03/28 03:20:04;;;;;;;18.4;11.4;;;;;;;5.01;70.30078;945.5759;;;;
2022/03/28 03:22:30;;;;;;;16.9;10.6;;;;;;;5.05;69.99316;945.557;;;;
2022/03/28 03:24:55;;;;;;;19.7;11.8;;;;;;;4.95;70.38281;945.5268;;;;
2022/03/28 03:27:20;;;;;;;19;12.4;;;;;;;4.88;70.61816;945.5062;;;;
2022/03/28 03:29:45;;;;;;;18.8;12.4;;;;;;;4.84;70.77051;945.5458;;;;
2022/03/28 03:32:10;;;;;;;15.3;10.9;;;;;;;4.76;71.03809;945.6099;;;;
2022/03/28 03:34:36;;;;;;;16.8;11.5;;;;;;;4.79;70.64844;945.5676;;;;
2022/03/28 03:37:01;;;;;;;17.1;10.9;;;;;;;4.75;70.47363;945.5999;;;;
2022/03/28 03:39:26;;;;;;;15.7;10.9;;;;;;;4.76;70.22559;945.6333;;;;
2022/03/28 03:41:51;;;;;;;15.2;10;;;;;;;4.71;70.28613;945.6464;;;;
2022/03/28 03:44:16;;;;;;;14.8;10.3;;;;;;;4.72;70.23145;945.597;;;;
2022/03/28 03:46:42;;;;;;;15.5;9.3;;;;;;;4.71;70.43359;945.6094;;;;
2022/03/28 03:49:08;;;;;;;13.8;9.1;;;;;;;4.69;70.63379;945.6197;;;;
2022/03/28 03:51:33;;;;;;;13;8.7;;;;;;;4.71;70.64746;945.6647;;;;
2022/03/28 03:53:58;;;;;;;11.9;8.7;;;;;;;4.71;70.62402;945.6992;;;;
2022/03/28 03:56:23;;;;;;;17.4;12.7;;;;;;;4.71;70.74902;945.7056;;;;
2022/03/28 03:58:48;;;;;;;25;22.3;;;;;;;4.69;70.7998;945.7431;;;;
2022/03/28 04:02:31;;;;;;;18.1;9.6;;;;;;;4.7;70.65625;945.7136;;;;
2022/03/28 04:04:56;;;;;;;18.7;10.5;;;;;;;4.6;71.10156;945.7397;;;;
2022/03/28 04:07:22;;;;;;;15.2;9.2;;;;;;;4.55;71.42969;945.6974;;;;
2022/03/28 04:09:47;;;;;;;16.6;10.1;;;;;;;4.57;71.41211;945.726;;;;
2022/03/28 04:12:15;;;;;;;17.3;9.4;;;;;;;4.58;71.41211;945.6884;;;;
2022/03/28 04:14:39;;;;;;;14.5;9.7;;;;;;;4.43;71.82715;945.7159;;;;
2022/03/28 04:17:05;;;;;;;20.3;14.1;;;;;;;4.35;72.2168;945.6755;;;;
2022/03/28 04:19:30;;;;;;;13.8;10;;;;;;;4.32;72.20215;945.6949;;;;
2022/03/28 04:21:55;;;;;;;13;8.2;;;;;;;4.37;71.78418;945.6855;;;;
2022/03/28 04:25:44;;;;;;;11.9;8.7;;;;;;;4.36;71.60059;945.6697;;;;
2022/03/28 04:28:10;;;;;;;12;8.4;;;;;;;4.11;72.41504;945.6553;;;;
2022/03/28 04:30:35;;;;;;;16.3;11.1;;;;;;;4.12;72.5498;945.5966;;;;
2022/03/28 04:33:02;;;;;;;13.8;10.7;;;;;;;4.23;72.01855;945.605;;;;
2022/03/28 04:35:26;;;;;;;16.5;11.3;;;;;;;4.37;71.33398;945.5231;;;;
2022/03/28 04:37:53;;;;;;;16.5;11.3;;;;;;;4.46;70.89746;945.5657;;;;
2022/03/28 04:40:18;;;;;;;22.9;12.7;;;;;;;4.53;71.02148;945.5808;;;;
2022/03/28 04:42:43;;;;;;;22.9;13.3;;;;;;;4.55;70.59668;945.5832;;;;
2022/03/28 04:45:08;;;;;;;29.9;17.8;;;;;;;4.5;70.74512;945.5706;;;;
2022/03/28 04:47:33;;;;;;;36.5;19.9;;;;;;;4.35;71.37402;945.5818;;;;
2022/03/28 04:49:58;;;;;;;25.9;16.5;;;;;;;4.29;71.48926;945.6211;;;;
2022/03/28 04:52:24;;;;;;;33;19.1;;;;;;;4.25;71.70605;945.6057;;;;
2022/03/28 04:54:49;;;;;;;33.5;20.1;;;;;;;4.17;71.83887;945.6742;;;;
2022/03/28 04:57:14;;;;;;;30.5;19;;;;;;;4.03;72.24512;945.7029;;;;
2022/03/28 04:59:39;;;;;;;32.8;19.2;;;;;;;4.1;71.92773;945.6767;;;;
2022/03/28 05:02:06;;;;;;;38.5;19.5;;;;;;;4.18;71.67188;945.6638;;;;
2022/03/28 05:04:31;;;;;;;25;15.6;;;;;;;4.19;71.33594;945.6437;;;;
2022/03/28 05:06:56;;;;;;;30.8;17.7;;;;;;;4.23;70.99512;945.5893;;;;
2022/03/28 05:09:21;;;;;;;34.2;18.9;;;;;;;4.26;70.68555;945.5584;;;;
2022/03/28 05:11:46;;;;;;;24.3;13.8;;;;;;;4.34;70.4834;945.6368;;;;
2022/03/28 05:14:11;;;;;;;22.9;13.8;;;;;;;4.45;70.20898;945.6608;;;;
2022/03/28 05:16:37;;;;;;;25;12.2;;;;;;;4.44;70.00684;945.6287;;;;
2022/03/28 05:19:02;;;;;;;20.2;10.4;;;;;;;4.34;70.46094;945.6656;;;;
2022/03/28 05:23:52;;;;;;;17.8;11.6;;;;;;;4.13;71.22559;945.615;;;;
2022/03/28 05:26:17;;;;;;;22.4;11.9;;;;;;;4.14;71.33984;945.6628;;;;
2022/03/28 05:28:42;;;;;;;17.1;11.5;;;;;;;4.24;71.06348;945.6298;;;;
2022/03/28 05:31:07;;;;;;;22.1;12.1;;;;;;;4.24;70.86133;945.6411;;;;
2022/03/28 05:33:33;;;;;;;20.2;12;;;;;;;4.12;71.47168;945.6881;;;;
2022/03/28 05:36:00;;;;;;;16.1;11.1;;;;;;;4.03;71.77148;945.6697;;;;
2022/03/28 05:38:25;;;;;;;17.6;11;;;;;;;4.2;71.23633;945.5952;;;;
2022/03/28 05:41:22;;;;;;;19.4;11.6;;;;;;;4.25;71.16602;945.6264;;;;
2022/03/28 05:43:48;;;;;;;20.2;11.3;;;;;;;4.39;70.90723;945.6127;;;;
2022/03/28 05:46:14;;;;;;;20;10.8;;;;;;;4.58;70.11914;945.6192;;;;
2022/03/28 05:48:39;;;;;;;18.2;10.6;;;;;;;4.71;70.84863;945.6677;;;;
2022/03/28 05:51:04;;;;;;;17;10;;;;;;;5.19;68.41504;945.5679;;;;
2022/03/28 05:53:29;;;;;;;22.2;10.8;;;;;;;6;65.64063;945.6062;;;;
2022/03/28 05:55:55;;;;;;;23.7;10.7;;;;;;;6.57;63.1709;945.5555;;;;
2022/03/28 05:58:20;;;;;;;22.5;10.4;;;;;;;7.21;60.37695;945.5369;;;;
2022/03/28 06:00:45;;;;;;;21.9;10.1;;;;;;;7.57;59.21484;945.4958;;;;
2022/03/28 06:03:10;;;;;;;15.8;9.8;;;;;;;7.76;57.94531;945.5379;;;;
2022/03/28 06:05:39;;;;;;;22.2;10.1;;;;;;;8.08;57.10547;945.4517;;;;
2022/03/28 06:08:03;;;;;;;23.3;10.1;;;;;;;8.65;55.15625;945.5034;;;;
2022/03/28 06:10:28;;;;;;;20.8;10.1;;;;;;;9.43;53.29785;945.555;;;;
2022/03/28 06:12:53;;;;;;;49.1;28.4;;;;;;;8.89;54.08398;945.5287;;;;
2022/03/28 06:15:20;;;;;;;34.2;17.8;;;;;;;8.89;54.44727;945.5087;;;;
2022/03/28 06:17:46;;;;;;;25.4;15.2;;;;;;;9.2;53.13184;945.5055;;;;
2022/03/28 06:20:11;;;;;;;20.8;11;;;;;;;9.68;51.57324;945.4579;;;;
2022/03/28 06:22:36;;;;;;;16.5;9.4;;;;;;;9.69;51.3584;945.351;;;;
2022/03/28 06:25:02;;;;;;;14;8.9;;;;;;;10.53;49.74609;945.4095;;;;
2022/03/28 06:27:27;;;;;;;10.8;7.5;;;;;;;11.14;47.5752;945.3219;;;;
2022/03/28 06:29:52;;;;;;;11.1;7.2;;;;;;;11.65;46.41797;945.355;;;;
2022/03/28 06:32:17;;;;;;;10.6;6.9;;;;;;;12.17;43.99707;945.2841;;;;
2022/03/28 06:34:42;;;;;;;12.5;7.5;;;;;;;12.21;43.95605;945.2567;;;;
2022/03/28 06:37:27;;;;;;;9.2;6.2;;;;;;;12.47;42.50195;945.2615;;;;
2022/03/28 06:39:52;;;;;;;11.8;7.3;;;;;;;13.77;41.69824;945.2017;;;;
2022/03/28 06:42:18;;;;;;;10;7;;;;;;;15.13;38.56152;945.2495;;;;
2022/03/28 06:44:43;;;;;;;10;6.6;;;;;;;15.25;37.90332;945.1483;;;;
2022/03/28 06:47:08;;;;;;;8.6;6.3;;;;;;;14.23;38.40332;945.1756;;;;
2022/03/28 06:49:34;;;;;;;8.3;6.4;;;;;;;15.13;36.87891;945.1717;;;;
2022/03/28 06:51:59;;;;;;;8.2;6.3;;;;;;;14.94;37.43848;945.1283;;;;
2022/03/28 06:54:24;;;;;;;8.3;6.7;;;;;;;16.3;37.06934;945.1264;;;;
2022/03/28 06:56:49;;;;;;;11.2;6.7;;;;;;;15.27;37.3291;945.0978;;;;
2022/03/28 06:59:14;;;;;;;10.9;6.5;;;;;;;17.09;34.80664;945.0578;;;;
2022/03/28 07:01:47;;;;;;;10;6.9;;;;;;;18.03;33.74316;945.1172;;;;
2022/03/28 07:04:12;;;;;;;9.1;6.2;;;;;;;17.43;33.42969;945.0992;;;;
2022/03/28 07:06:38;;;;;;;9.5;6.5;;;;;;;16.28;34.93945;945.0428;;;;
2022/03/28 07:09:04;;;;;;;8.4;6.3;;;;;;;16.97;34.98242;945.0686;;;;
2022/03/28 07:11:27;;;;;;;9;6.1;;;;;;;17.36;34.42188;945.06;;;;
2022/03/28 07:13:52;;;;;;;11.9;7;;;;;;;18.13;32.44922;945.0454;;;;
2022/03/28 07:16:18;;;;;;;12;6.6;;;;;;;18.18;32.06934;945.0772;;;;
2022/03/28 07:18:43;;;;;;;9.7;6.5;;;;;;;18.81;31.20801;945.005;;;;
2022/03/28 07:21:09;;;;;;;14.5;7;;;;;;;17.26;33.60254;945.0106;;;;
2022/03/28 07:23:34;;;;;;;10.6;6.2;;;;;;;17.45;34.04688;944.9735;;;;
2022/03/28 07:26:00;;;;;;;8.7;6.2;;;;;;;19.06;32.75;944.9526;;;;
2022/03/28 07:28:25;;;;;;;10.6;6.2;;;;;;;19.58;31.75098;944.9489;;;;
2022/03/28 07:30:50;;;;;;;10.6;6.1;;;;;;;21.07;28.6084;944.8848;;;;
2022/03/28 07:33:15;;;;;;;6.8;5.8;;;;;;;19.21;28.7207;944.7745;;;;
2022/03/28 07:35:41;;;;;;;10;5.7;;;;;;;18.06;29.80664;944.9235;;;;
2022/03/28 07:38:08;;;;;;;8.8;5.9;;;;;;;19.1;28.89941;944.8754;;;;
2022/03/28 07:40:32;;;;;;;7.4;5.2;;;;;;;20.17;27.45117;944.8507;;;;
2022/03/28 07:42:57;;;;;;;8.1;6.2;;;;;;;19.02;28.91797;944.7625;;;;
2022/03/28 07:45:23;;;;;;;7.2;5.5;;;;;;;18.66;30.27832;944.8187;;;;
2022/03/28 07:47:48;;;;;;;9.4;6.4;;;;;;;21.17;26.28613;944.7662;;;;
2022/03/28 07:50:14;;;;;;;11.2;5.9;;;;;;;20.94;26.02734;944.7342;;;;
2022/03/28 07:52:39;;;;;;;8.1;5.7;;;;;;;21.55;25.86328;944.6786;;;;
2022/03/28 07:55:04;;;;;;;7.3;5.8;;;;;;;21.62;24.87207;944.6641;;;;
2022/03/28 07:57:30;;;;;;;8.6;5.6;;;;;;;22.19;24.76367;944.6816;;;;
2022/03/28 07:59:55;;;;;;;14.6;5.6;;;;;;;22.86;23.76758;944.6475;;;;
2022/03/28 08:02:24;;;;;;;6.2;5.5;;;;;;;20.83;24.88672;944.6473;;;;
2022/03/28 08:04:47;;;;;;;7.9;5.4;;;;;;;21.35;24.2959;944.5912;;;;
2022/03/28 08:07:12;;;;;;;10.1;5.6;;;;;;;21.38;24.85938;944.593;;;;
2022/03/28 08:09:37;;;;;;;10.6;6;;;;;;;20.67;26.28027;944.5094;;;;
2022/03/28 08:12:03;;;;;;;9.3;5.6;;;;;;;22.14;23.89258;944.5733;;;;
2022/03/28 08:14:28;;;;;;;7.7;5.8;;;;;;;20.16;25.15234;944.4846;;;;
2022/03/28 08:16:53;;;;;;;9.3;5.8;;;;;;;20.15;25.14063;944.3876;;;;
2022/03/28 08:19:18;;;;;;;8.1;5.3;;;;;;;20.49;25.39355;944.366;;;;
2022/03/28 08:21:43;;;;;;;8.2;5.4;;;;;;;22.53;23.42188;944.3762;;;;
2022/03/28 08:24:08;;;;;;;15.6;7;;;;;;;22.48;23.57129;944.3021;;;;
2022/03/28 08:26:34;;;;;;;6.5;5.5;;;;;;;21.62;23.99414;944.3074;;;;
2022/03/28 08:28:59;;;;;;;6.6;5.2;;;;;;;23.09;23.08594;944.236;;;;
2022/03/28 08:31:25;;;;;;;7.7;5.4;;;;;;;24.51;20.83887;944.1649;;;;
2022/03/28 08:33:50;;;;;;;6;4.7;;;;;;;22.93;22.29102;944.2369;;;;
2022/03/28 08:36:15;;;;;;;6.9;5;;;;;;;25.16;22.00195;944.1644;;;;
2022/03/28 08:38:40;;;;;;;13.1;5.9;;;;;;;26.82;18.63574;944.1916;;;;
2022/03/28 08:41:06;;;;;;;8.2;5.4;;;;;;;25.08;20.29883;944.1563;;;;
2022/03/28 08:43:31;;;;;;;6.7;5.2;;;;;;;23.84;21.61914;944.1586;;;;
2022/03/28 08:45:55;;;;;;;7.4;5.6;;;;;;;26.27;20.96777;944.1311;;;;
2022/03/28 08:48:22;;;;;;;7.9;5.3;;;;;;;26.73;19.09375;944.0929;;;;
2022/03/28 08:50:47;;;;;;;6.5;5;;;;;;;26.48;19.97168;944.0829;;;;
2022/03/28 08:53:12;;;;;;;11;5.6;;;;;;;27.8;18.3916;944.0559;;;;
2022/03/28 08:55:38;;;;;;;6.9;5;;;;;;;27.02;18.81055;944.1277;;;;
2022/03/28 08:58:03;;;;;;;8.8;5.6;;;;;;;27.62;17.83789;943.9839;;;;
2022/03/28 09:00:28;;;;;;;9.4;5.4;;;;;;;28.38;17.14355;943.9422;;;;
2022/03/28 09:02:53;;;;;;;7;5.4;;;;;;;27.87;19.1543;943.9218;;;;
2022/03/28 09:05:18;;;;;;;7.7;5;;;;;;;26.41;19.13965;943.9233;;;;
2022/03/28 09:07:44;;;;;;;8.2;5.5;;;;;;;26.02;18.66211;943.8683;;;;
2022/03/28 09:10:09;;;;;;;8.3;5.9;;;;;;;26.84;19.75;943.7676;;;;
2022/03/28 09:12:39;;;;;;;9;5.4;;;;;;;27.2;19.01855;943.7971;;;;
2022/03/28 09:15:01;;;;;;;7.7;5.4;;;;;;;27.68;18.24414;943.7371;;;;
2022/03/28 09:17:24;;;;;;;9.4;5.7;;;;;;;28.19;17.62305;943.7492;;;;
2022/03/28 09:19:50;;;;;;;7.9;5.3;;;;;;;28.27;17.30469;943.7089;;;;
2022/03/28 09:22:15;;;;;;;6.4;5.5;;;;;;;27.04;18.72754;943.6627;;;;
2022/03/28 09:24:41;;;;;;;8.6;5.8;;;;;;;27.93;17.70801;943.6448;;;;
2022/03/28 09:27:05;;;;;;;9;5.6;;;;;;;28.66;16.96387;943.6411;;;;
2022/03/28 09:29:30;;;;;;;8.1;5.5;;;;;;;29.8;15.88477;943.671;;;;
2022/03/28 09:31:55;;;;;;;13.2;6;;;;;;;27.32;18.47852;943.611;;;;
2022/03/28 09:34:20;;;;;;;7.4;5.5;;;;;;;28.69;16.57227;943.6052;;;;
2022/03/28 09:36:45;;;;;;;9.1;5.6;;;;;;;29.22;16.21094;943.5689;;;;
2022/03/28 09:39:11;;;;;;;8.5;5.8;;;;;;;29.37;16.63281;943.565;;;;
2022/03/28 09:41:35;;;;;;;7.7;5.4;;;;;;;29.87;15.81641;943.5528;;;;
2022/03/28 09:44:00;;;;;;;7.8;5.3;;;;;;;28.63;16.91504;943.5307;;;;
2022/03/28 09:46:25;;;;;;;6.6;5.2;;;;;;;29.88;15.97168;943.4826;;;;
2022/03/28 09:48:51;;;;;;;6.6;5.2;;;;;;;30.79;14.5459;943.4766;;;;
2022/03/28 09:51:16;;;;;;;13.7;6;;;;;;;30.39;14.73535;943.4398;;;;
2022/03/28 09:53:41;;;;;;;8.8;5.6;;;;;;;30.21;15.58984;943.3998;;;;
2022/03/28 09:56:06;;;;;;;10;5.7;;;;;;;29.97;16.35645;943.3942;;;;
2022/03/28 09:58:31;;;;;;;8.5;5.2;;;;;;;29.71;15.66797;943.3286;;;;
2022/03/28 10:00:56;;;;;;;7.3;5.4;;;;;;;29.47;16.58887;943.2667;;;;
2022/03/28 10:03:21;;;;;;;9.5;6.1;;;;;;;29.9;16.25879;943.2162;;;;
2022/03/28 10:05:46;;;;;;;7.6;5.8;;;;;;;30.36;15.55859;943.2014;;;;
2022/03/28 10:08:12;;;;;;;8.8;6.1;;;;;;;30.69;15.34277;943.1316;;;;
2022/03/28 10:10:37;;;;;;;10.6;7;;;;;;;30.54;15.66016;943.0867;;;;
2022/03/28 10:13:03;;;;;;;9.5;7.4;;;;;;;30.9;15.69727;943.0215;;;;
2022/03/28 10:15:28;;;;;;;10.3;7.3;;;;;;;29.03;18.3584;943.0175;;;;
2022/03/28 10:17:55;;;;;;;10.5;7.3;;;;;;;28.7;17.88086;942.9691;;;;
2022/03/28 10:20:20;;;;;;;13.1;8.3;;;;;;;29.77;17.00586;943.0056;;;;
2022/03/28 10:22:45;;;;;;;10.4;7.4;;;;;;;28.55;18.42285;942.825;;;;
2022/03/28 10:25:12;;;;;;;11;7.4;;;;;;;29.49;17.53125;942.8434;;;;
2022/03/28 10:27:36;;;;;;;9.5;7.1;;;;;;;29.72;17.45703;942.7944;;;;
2022/03/28 10:30:01;;;;;;;9.8;7.1;;;;;;;29.66;16.73926;942.7322;;;;
2022/03/28 10:32:26;;;;;;;10.3;7;;;;;;;29.23;18.02148;942.6711;;;;
2022/03/28 10:34:52;;;;;;;11;6.9;;;;;;;29.65;17.54883;942.6113;;;;
2022/03/28 10:37:16;;;;;;;9.9;6.8;;;;;;;29.97;16.64258;942.6092;;;;
2022/03/28 10:39:41;;;;;;;10.6;7.2;;;;;;;30.1;16.58789;942.5303;;;;
2022/03/28 10:42:07;;;;;;;11.2;6.6;;;;;;;30.84;16.13672;942.4707;;;;
2022/03/28 10:44:32;;;;;;;11.1;7.1;;;;;;;30.32;17.46777;942.4559;;;;
2022/03/28 10:46:57;;;;;;;10.2;7.2;;;;;;;31;16.16699;942.3728;;;;
2022/03/28 10:49:22;;;;;;;7.9;6.6;;;;;;;31.54;15.63477;942.3654;;;;
2022/03/28 10:51:47;;;;;;;8.8;6.6;;;;;;;31.99;15.24316;942.2885;;;;
2022/03/28 10:54:12;;;;;;;8.3;6.3;;;;;;;32.73;14.94434;942.2654;;;;
2022/03/28 10:56:38;;;;;;;7.8;6.1;;;;;;;32.55;14.67383;942.2104;;;;
2022/03/28 10:59:03;;;;;;;9.8;6.6;;;;;;;32.31;15.19434;942.1847;;;;
2022/03/28 11:01:28;;;;;;;9.1;6.9;;;;;;;31.97;15.01465;942.0622;;;;
2022/03/28 11:03:53;;;;;;;10.9;6.7;;;;;;;32.28;15.46875;942.0074;;;;
2022/03/28 11:06:19;;;;;;;8.3;6.5;;;;;;;32.9;14.61328;941.9841;;;;
2022/03/28 11:08:45;;;;;;;33.4;8.8;;;;;;;33.23;14.56348;941.9706;;;;
2022/03/28 11:11:08;;;;;;;7.9;6.3;;;;;;;33.24;14.16797;941.8972;;;;
2022/03/28 11:13:34;;;;;;;9.6;7.1;;;;;;;33.57;14.31055;941.8242;;;;
2022/03/28 11:16:00;;;;;;;9.2;7;;;;;;;33.96;13.4082;941.7121;;;;
2022/03/28 11:18:25;;;;;;;9.6;6.5;;;;;;;32.14;15.12793;941.7123;;;;
2022/03/28 11:20:52;;;;;;;8.4;6.4;;;;;;;32.09;14.93457;941.6127;;;;
2022/03/28 11:23:15;;;;;;;13.1;6.5;;;;;;;32.62;14.20801;941.6242;;;;
2022/03/28 11:25:41;;;;;;;9.3;6.3;;;;;;;32.39;14.96875;941.5775;;;;
2022/03/28 11:28:05;;;;;;;8.1;5.8;;;;;;;32.73;15.23242;941.5105;;;;
2022/03/28 11:30:32;;;;;;;8.9;6.3;;;;;;;32.02;15.52051;941.4275;;;;
2022/03/28 11:32:58;;;;;;;12.4;6.8;;;;;;;33.09;14.61914;941.4993;;;;
2022/03/28 11:35:23;;;;;;;7.6;5.9;;;;;;;34.04;13.51855;941.5056;;;;
2022/03/28 11:37:48;;;;;;;7.6;6.1;;;;;;;34.58;12.94434;941.3972;;;;
2022/03/28 11:40:13;;;;;;;9.2;6.1;;;;;;;34.59;13.37793;941.3926;;;;
2022/03/28 11:42:39;;;;;;;8.3;6.4;;;;;;;35.1;12.24707;941.3338;;;;
2022/03/28 11:45:08;;;;;;;7.6;6.1;;;;;;;34.92;13.03809;941.2723;;;;
2022/03/28 11:47:31;;;;;;;10;6.7;;;;;;;33.36;13.77441;941.2639;;;;
2022/03/28 11:49:57;;;;;;;9.8;6.8;;;;;;;33.41;14.0166;941.2353;;;;
2022/03/28 11:52:22;;;;;;;135.8;18.7;;;;;;;33.26;14.13281;941.1548;;;;
2022/03/28 11:54:47;;;;;;;9.7;6.7;;;;;;;32.92;14.29004;941.0474;;;;
2022/03/28 11:59:37;;;;;;;32.3;8.3;;;;;;;30.67;16.41797;940.9703;;;;
2022/03/28 12:02:02;;;;;;;9.2;6.5;;;;;;;31.42;15.7627;940.9381;;;;
2022/03/28 12:04:27;;;;;;;8.6;6.1;;;;;;;31.63;15.62598;940.8434;;;;
2022/03/28 12:06:52;;;;;;;9.4;6.5;;;;;;;30.96;16.58398;940.8378;;;;
2022/03/28 12:09:17;;;;;;;8.7;6.4;;;;;;;31.4;16.06152;940.8337;;;;
2022/03/28 12:11:43;;;;;;;9.9;6.8;;;;;;;31.23;16.79688;940.6941;;;;
2022/03/28 12:14:08;;;;;;;9.4;7.1;;;;;;;30.45;16.06348;940.699;;;;
2022/03/28 12:16:33;;;;;;;15.6;6.9;;;;;;;30.56;16.23438;940.6477;;;;
2022/03/28 12:19:01;;;;;;;9.6;7;;;;;;;31.93;16.06836;940.5919;;;;
2022/03/28 12:21:24;;;;;;;10.7;7.4;;;;;;;32;15.5918;940.5786;;;;
2022/03/28 12:23:49;;;;;;;10.7;6.4;;;;;;;31.7;15.30566;940.4808;;;;
2022/03/28 12:26:14;;;;;;;8.9;6.1;;;;;;;32.2;15.52637;940.515;;;;
2022/03/28 12:28:43;;;;;;;8.7;6.4;;;;;;;31.73;16.07324;940.3772;;;;
2022/03/28 12:31:05;;;;;;;9.3;6.8;;;;;;;31.95;15.72168;940.3582;;;;
2022/03/28 12:33:30;;;;;;;9.5;6.9;;;;;;;30.47;17.05566;940.2861;;;;
2022/03/28 12:35:55;;;;;;;14.2;7.8;;;;;;;29.87;17.90332;940.3067;;;;
2022/03/28 12:38:21;;;;;;;11.6;7.7;;;;;;;28.5;19.07422;940.2845;;;;
2022/03/28 12:40:46;;;;;;;9;6.7;;;;;;;28.38;18.53418;940.218;;;;
2022/03/28 12:43:12;;;;;;;11;7.2;;;;;;;29.53;17.75879;940.1368;;;;
2022/03/28 12:45:37;;;;;;;9.8;6.5;;;;;;;29.67;18.83789;940.0692;;;;
2022/03/28 12:48:03;;;;;;;10.3;7.6;;;;;;;28.52;18.95605;940.1253;;;;
2022/03/28 12:50:28;;;;;;;13.1;7.6;;;;;;;28.43;19.17871;940.0055;;;;
2022/03/28 12:52:54;;;;;;;9.3;7.1;;;;;;;28.24;19.34863;940.01;;;;
2022/03/28 12:55:20;;;;;;;11.2;7.4;;;;;;;28.67;17.59473;939.9969;;;;
2022/03/28 12:57:45;;;;;;;10.4;7.4;;;;;;;28.71;18.28613;939.9469;;;;
2022/03/28 13:00:12;;;;;;;9.4;7.1;;;;;;;29.53;17.62793;939.8856;;;;
2022/03/28 13:02:37;;;;;;;12.2;8.6;;;;;;;29.68;18.03906;939.8348;;;;
2022/03/28 13:05:02;;;;;;;13.2;8.1;;;;;;;28.51;18.89648;939.7893;;;;
2022/03/28 13:07:28;;;;;;;11.3;7.3;;;;;;;28.72;18.31055;939.7598;;;;
2022/03/28 13:09:54;;;;;;;13.1;8.1;;;;;;;29.66;16.96582;939.6775;;;;
2022/03/28 13:12:20;;;;;;;10.1;7.3;;;;;;;29.66;16.72656;939.5927;;;;
2022/03/28 13:14:44;;;;;;;14.5;7.9;;;;;;;28.7;17.16699;939.5652;;;;
2022/03/28 13:17:09;;;;;;;10;7.4;;;;;;;28.88;17.65039;939.6533;;;;
2022/03/28 13:19:35;;;;;;;10.4;7.6;;;;;;;28.16;19.8916;939.5792;;;;
2022/03/28 13:22:00;;;;;;;17.4;9.1;;;;;;;27.73;19.59961;939.5652;;;;
2022/03/28 13:24:25;;;;;;;12.6;8.4;;;;;;;26.64;20.51074;939.5223;;;;
2022/03/28 13:28:01;;;;;;;30.8;9.7;;;;;;;27.2;20.08594;939.5527;;;;
2022/03/28 13:29:15;;;;;;;10.8;7.9;;;;;;;26.72;20.38477;939.506;;;;
2022/03/28 13:31:40;;;;;;;14.1;8.1;;;;;;;26.17;21.58984;939.4888;;;;
2022/03/28 13:34:06;;;;;;;13.7;8.4;;;;;;;26.72;20.1123;939.4607;;;;
2022/03/28 13:36:30;;;;;;;16.3;8.5;;;;;;;26.55;20.56641;939.3705;;;;
2022/03/28 13:38:56;;;;;;;17.2;8.5;;;;;;;26.9;20.2627;939.3364;;;;
2022/03/28 13:41:21;;;;;;;17;8.2;;;;;;;26.98;20.39648;939.3644;;;;
2022/03/28 13:43:46;;;;;;;12.1;7.6;;;;;;;26.55;21.0166;939.2584;;;;
2022/03/28 13:46:12;;;;;;;12.1;8;;;;;;;26.72;20.21875;939.2623;;;;
2022/03/28 13:48:37;;;;;;;12.3;8.3;;;;;;;27.32;19.77148;939.1859;;;;
2022/03/28 13:51:02;;;;;;;10.9;7.8;;;;;;;27.11;20.49707;939.1544;;;;
2022/03/28 13:53:27;;;;;;;10.8;7.9;;;;;;;27.1;19.67871;939.1566;;;;
2022/03/28 13:55:52;;;;;;;10.4;7.7;;;;;;;27.3;19.73535;939.0553;;;;
2022/03/28 13:58:17;;;;;;;14.2;9;;;;;;;26.12;21.36328;938.9828;;;;
2022/03/28 14:00:43;;;;;;;13.3;8.9;;;;;;;25.93;21.23633;938.968;;;;
2022/03/28 14:03:08;;;;;;;12.3;8.8;;;;;;;26.01;21.6416;938.8998;;;;
2022/03/28 14:05:33;;;;;;;12.1;8.7;;;;;;;25.59;21.67969;938.8591;;;;
2022/03/28 14:08:00;;;;;;;12.1;8.6;;;;;;;24.91;22.75586;938.8738;;;;
2022/03/28 14:10:23;;;;;;;14.4;9.3;;;;;;;24.59;22.84668;938.8192;;;;
2022/03/28 14:12:49;;;;;;;14.5;9.2;;;;;;;24.24;23.51172;938.7947;;;;
2022/03/28 14:15:14;;;;;;;12.1;9.1;;;;;;;23.68;24.37598;938.8212;;;;
2022/03/28 14:17:41;;;;;;;16;10.3;;;;;;;22.93;24.41699;938.7756;;;;
2022/03/28 14:20:05;;;;;;;14.4;9.9;;;;;;;22.75;25.2998;938.7947;;;;